Time;durP1;ratioP1;P1;durP2;ratioP2;P2;SDS_P1;SDS_P2;PMS_P1;PMS_P2;Temp;Humidity;BMP_temperature;BMP_pressure;BME280_temperature;BME280_humidity;BME280_pressure;Samples;Min_cycle;Max_cycle;Signal;HPM_P1;HPM_P2
2023/06/04 00:00:41;;;;;;;2.83;1.98;;;;;;;12.43;100.00;102216.13;5031391;28;20045;-49
2023/06/04 00:03:06;;;;;;;2.55;1.50;;;;;;;12.40;100.00;102216.19;5032877;28;20037;-54
2023/06/04 00:05:32;;;;;;;2.78;1.70;;;;;;;11.95;100.00;102136.03;5032914;28;20112;-48
2023/06/04 00:07:57;;;;;;;3.55;2.13;;;;;;;12.30;100.00;102211.97;5032814;28;20125;-49
2023/06/04 00:10:22;;;;;;;3.15;1.75;;;;;;;12.29;100.00;102212.84;5015060;28;20065;-47
2023/06/04 00:12:48;;;;;;;2.97;1.42;;;;;;;12.05;100.00;102173.69;5011413;28;20041;-51
2023/06/04 00:15:16;;;;;;;1.92;1.70;;;;;;;11.71;100.00;102134.69;5013179;28;20034;-51
2023/06/04 00:17:41;;;;;;;2.20;1.95;;;;;;;11.79;100.00;102134.56;4995868;28;20034;-51
2023/06/04 00:20:07;;;;;;;4.18;2.20;;;;;;;12.22;100.00;102216.50;4979085;28;20095;-50
2023/06/04 00:22:32;;;;;;;2.35;1.50;;;;;;;12.08;100.00;102200.03;5012977;28;20053;-51
2023/06/04 00:24:57;;;;;;;1.80;1.52;;;;;;;12.04;100.00;102191.31;5012779;28;20041;-50
2023/06/04 00:27:23;;;;;;;3.45;1.83;;;;;;;12.15;100.00;102221.00;5012615;28;20037;-50
2023/06/04 00:29:48;;;;;;;2.75;1.98;;;;;;;11.67;100.00;102125.06;5011498;28;20053;-48
2023/06/04 00:32:13;;;;;;;3.35;1.50;;;;;;;11.70;100.00;102146.13;5012851;28;20044;-49
2023/06/04 00:34:38;;;;;;;1.50;1.40;;;;;;;12.03;100.00;102197.47;5012744;28;20156;-50
2023/06/04 00:37:04;;;;;;;4.00;1.88;;;;;;;12.05;100.00;102205.38;5012059;28;20044;-50
2023/06/04 00:39:29;;;;;;;2.17;1.73;;;;;;;12.04;100.00;102217.69;5011269;28;20120;-52
2023/06/04 00:41:55;;;;;;;2.47;1.52;;;;;;;11.64;100.00;102142.69;5013011;28;20045;-48
2023/06/04 00:44:23;;;;;;;3.08;1.80;;;;;;;11.56;100.00;102145.44;4995041;28;20038;-50
2023/06/04 00:46:49;;;;;;;4.03;2.15;;;;;;;11.87;100.00;102197.75;5011223;28;20102;-48
2023/06/04 00:49:14;;;;;;;3.28;1.70;;;;;;;11.98;100.00;102216.91;4995346;28;20441;-52
2023/06/04 00:51:40;;;;;;;7.05;1.75;;;;;;;11.43;100.00;102135.13;5012123;28;20044;-48
2023/06/04 00:54:08;;;;;;;2.08;1.75;;;;;;;11.94;100.00;102223.16;5012364;28;20395;-48
2023/06/04 00:56:38;;;;;;;3.45;1.50;;;;;;;11.65;100.00;102176.94;4994671;28;20401;-48
2023/06/04 00:59:08;;;;;;;3.28;1.80;;;;;;;11.88;100.00;102225.88;5012639;28;20052;-48
2023/06/04 01:01:43;;;;;;;3.78;1.83;;;;;;;11.87;100.00;102219.75;5011000;28;20064;-48
2023/06/04 01:04:17;;;;;;;1.88;1.45;;;;;;;11.41;100.00;102156.25;4993317;28;20033;-49
2023/06/04 01:06:50;;;;;;;4.15;1.98;;;;;;;11.75;100.00;102230.47;5012447;28;20030;-48
2023/06/04 01:09:15;;;;;;;1.85;1.42;;;;;;;11.27;100.00;102155.56;5018817;28;20076;-49
2023/06/04 01:11:41;;;;;;;2.38;1.77;;;;;;;11.28;100.00;102155.53;5014554;28;20496;-48
2023/06/04 01:14:08;;;;;;;3.90;1.73;;;;;;;10.85;100.00;102078.00;5032154;28;20116;-46
2023/06/04 01:17:02;;;;;;;3.08;1.98;;;;;;;11.67;100.00;102225.28;5031048;28;20030;-47
2023/06/04 01:19:51;;;;;;;3.28;1.77;;;;;;;11.42;100.00;102205.44;5030146;28;20469;-46
2023/06/04 01:22:36;;;;;;;3.65;1.92;;;;;;;11.62;100.00;102231.50;5032125;28;20425;-49
2023/06/04 01:25:12;;;;;;;2.70;1.60;;;;;;;11.52;100.00;102219.34;5014678;28;20037;-47
2023/06/04 01:27:40;;;;;;;2.70;1.60;;;;;;;11.43;100.00;102208.94;5031913;28;20088;-47
2023/06/04 01:30:07;;;;;;;2.35;1.80;;;;;;;11.06;100.00;102147.97;5031652;28;20078;-48
2023/06/04 01:32:33;;;;;;;3.47;1.65;;;;;;;11.45;100.00;102229.13;5030646;28;20038;-51
2023/06/04 01:34:59;;;;;;;3.22;1.80;;;;;;;11.07;100.00;102171.66;5030843;28;20495;-49
2023/06/04 01:37:26;;;;;;;4.65;1.98;;;;;;;10.95;100.00;102149.84;5030568;28;20459;-49
2023/06/04 01:39:51;;;;;;;1.60;1.50;;;;;;;11.30;100.00;102224.91;5031553;28;20037;-46
2023/06/04 01:42:16;;;;;;;1.67;1.58;;;;;;;11.04;100.00;102183.97;5014190;28;20484;-47
2023/06/04 01:44:42;;;;;;;3.38;2.15;;;;;;;11.27;100.00;102222.31;5032035;28;20036;-48
2023/06/04 01:47:07;;;;;;;2.50;1.40;;;;;;;11.21;100.00;102217.13;5031650;28;20446;-48
2023/06/04 01:49:32;;;;;;;2.47;1.70;;;;;;;11.17;100.00;102207.53;5033758;28;20518;-52
2023/06/04 01:51:58;;;;;;;4.10;1.83;;;;;;;11.16;100.00;102212.81;5035377;28;20396;-49
2023/06/04 01:54:23;;;;;;;1.98;1.40;;;;;;;10.74;100.00;102137.81;5034259;28;20512;-49
2023/06/04 01:56:48;;;;;;;4.25;1.58;;;;;;;11.15;100.00;102217.22;5035106;28;20041;-50
2023/06/04 01:59:16;;;;;;;2.22;1.40;;;;;;;11.12;100.00;102217.25;5034833;28;20072;-50
2023/06/04 02:01:41;;;;;;;1.80;1.70;;;;;;;11.09;100.00;102216.44;5035163;28;20033;-50
2023/06/04 02:04:07;;;;;;;3.35;1.60;;;;;;;10.69;100.00;102144.91;5034055;28;20040;-48
2023/06/04 02:06:32;;;;;;;1.50;1.25;;;;;;;11.05;100.00;102209.44;5035152;28;20049;-49
2023/06/04 02:08:57;;;;;;;4.78;1.88;;;;;;;10.68;100.00;102146.66;5035118;28;20396;-49
2023/06/04 02:11:23;;;;;;;3.65;1.63;;;;;;;11.06;100.00;102219.97;5033698;28;20120;-47
2023/06/04 02:13:48;;;;;;;2.08;1.63;;;;;;;11.03;100.00;102224.41;5034963;28;20041;-51
2023/06/04 02:16:13;;;;;;;2.25;1.55;;;;;;;11.01;100.00;102215.63;5034948;28;20085;-51
2023/06/04 02:18:39;;;;;;;2.40;2.13;;;;;;;11.00;100.00;102216.56;5034995;28;20026;-50
2023/06/04 02:21:05;;;;;;;1.42;1.20;;;;;;;10.54;100.00;102145.97;5035054;28;20042;-49
2023/06/04 02:23:30;;;;;;;3.40;1.65;;;;;;;10.96;100.00;102220.09;5034269;28;20469;-48
2023/06/04 02:25:55;;;;;;;2.35;1.65;;;;;;;10.54;100.00;102145.97;5034483;28;20431;-48
2023/06/04 02:28:21;;;;;;;2.05;1.58;;;;;;;10.75;100.00;102181.72;5033017;28;20120;-48
2023/06/04 02:30:46;;;;;;;1.95;1.40;;;;;;;10.89;100.00;102223.69;5034693;28;20037;-49
2023/06/04 02:33:12;;;;;;;4.07;1.67;;;;;;;10.85;100.00;102216.72;5017085;28;20036;-47
2023/06/04 02:35:38;;;;;;;4.78;1.60;;;;;;;10.85;100.00;102225.50;5032686;28;20048;-48
2023/06/04 02:38:03;;;;;;;2.30;1.30;;;;;;;10.54;100.00;102182.81;5034078;28;20037;-47
2023/06/04 02:40:29;;;;;;;2.13;1.30;;;;;;;10.82;100.00;102228.19;5016355;28;20109;-47
2023/06/04 02:42:55;;;;;;;2.13;1.38;;;;;;;10.79;100.00;102236.13;5033987;28;20473;-49
2023/06/04 02:45:21;;;;;;;2.17;1.50;;;;;;;10.42;100.00;102174.22;5033248;28;20041;-48
2023/06/04 02:47:47;;;;;;;1.92;1.08;;;;;;;10.67;100.00;102209.91;5034391;28;20041;-47
2023/06/04 02:50:13;;;;;;;1.67;1.33;;;;;;;10.76;100.00;102241.41;5016766;28;20397;-50
2023/06/04 02:52:39;;;;;;;1.88;1.63;;;;;;;10.59;100.00;102210.00;5034120;28;20029;-47
2023/06/04 02:55:06;;;;;;;7.97;2.42;;;;;;;10.65;100.00;102222.22;5033788;28;20542;-49
2023/06/04 02:57:32;;;;;;;2.13;1.42;;;;;;;10.22;100.00;102152.47;5032682;28;20487;-48
2023/06/04 02:59:58;;;;;;;3.47;1.35;;;;;;;10.12;100.00;102139.41;5033868;28;20116;-47
2023/06/04 03:02:24;;;;;;;1.30;1.20;;;;;;;10.50;100.00;102214.47;5032579;28;20125;-49
2023/06/04 03:04:51;;;;;;;3.15;1.48;;;;;;;10.18;100.00;102153.41;5034105;28;20033;-48
2023/06/04 03:07:20;;;;;;;3.00;1.30;;;;;;;10.49;100.00;102213.59;5033799;28;20046;-52
2023/06/04 03:09:46;;;;;;;2.88;1.35;;;;;;;10.11;100.00;102157.81;5033687;28;20424;-51
2023/06/04 03:12:11;;;;;;;1.67;1.27;;;;;;;9.92;100.00;102136.09;5033750;28;20029;-49
2023/06/04 03:14:36;;;;;;;1.60;1.20;;;;;;;10.48;100.00;102230.28;5034150;28;20034;-48
2023/06/04 03:17:07;;;;;;;4.20;1.40;;;;;;;10.10;100.00;102167.44;5032476;28;20033;-48
2023/06/04 03:19:37;;;;;;;4.88;1.55;;;;;;;10.28;100.00;102205.03;5033772;28;20164;-49
2023/06/04 03:22:05;;;;;;;2.60;1.85;;;;;;;10.07;100.00;102158.72;5033209;28;20060;-49
2023/06/04 03:24:32;;;;;;;3.35;1.27;;;;;;;10.40;100.00;102212.81;5033604;28;20045;-47
2023/06/04 03:26:58;;;;;;;2.53;1.45;;;;;;;10.10;100.00;102177.09;5016127;28;20480;-49
2023/06/04 03:29:23;;;;;;;1.33;1.20;;;;;;;10.37;100.00;102220.75;5033600;28;20045;-50
2023/06/04 03:31:48;;;;;;;2.90;1.40;;;;;;;9.22;100.00;102021.91;5033678;28;20125;-50
2023/06/04 03:34:14;;;;;;;2.10;1.35;;;;;;;10.18;100.00;102196.38;5033616;28;20045;-50
2023/06/04 03:36:39;;;;;;;2.30;1.48;;;;;;;9.94;100.00;102154.47;5031860;28;20041;-49
2023/06/04 03:39:04;;;;;;;1.45;1.20;;;;;;;9.91;100.00;102152.75;5033411;28;20037;-48
2023/06/04 03:41:30;;;;;;;2.90;1.48;;;;;;;10.31;100.00;102224.31;5032179;28;20040;-47
2023/06/04 03:43:55;;;;;;;2.25;1.40;;;;;;;10.30;100.00;102224.34;5033300;28;20083;-48
2023/06/04 03:46:21;;;;;;;1.30;1.20;;;;;;;10.21;100.00;102220.03;5033289;28;20033;-50
2023/06/04 03:48:46;;;;;;;2.75;1.27;;;;;;;10.17;100.00;102210.41;5033246;28;20091;-49
2023/06/04 03:51:11;;;;;;;2.17;1.40;;;;;;;10.27;100.00;102227.00;5033110;28;20052;-48
2023/06/04 03:53:37;;;;;;;2.85;1.77;;;;;;;10.27;100.00;102233.13;5031750;28;20046;-51
2023/06/04 03:56:02;;;;;;;3.13;1.52;;;;;;;10.03;100.00;102207.00;5032985;28;20025;-48
2023/06/04 03:58:28;;;;;;;3.03;1.48;;;;;;;10.19;100.00;102221.78;5032742;28;20030;-48
2023/06/04 04:00:54;;;;;;;2.40;1.92;;;;;;;10.23;100.00;102228.78;5033240;28;20040;-47
2023/06/04 04:03:20;;;;;;;1.65;1.27;;;;;;;10.26;100.00;102234.00;5032761;28;20037;-47
2023/06/04 04:05:45;;;;;;;4.80;1.42;;;;;;;10.28;100.00;102234.84;5032841;28;20036;-48
2023/06/04 04:08:11;;;;;;;2.22;1.50;;;;;;;10.27;100.00;102227.88;4999000;28;20091;-49
2023/06/04 04:10:37;;;;;;;3.45;1.50;;;;;;;10.32;100.00;102230.44;4979277;28;20462;-51
2023/06/04 04:13:02;;;;;;;4.18;1.67;;;;;;;9.93;100.00;102161.47;4995324;28;20073;-50
2023/06/04 04:15:27;;;;;;;2.60;1.20;;;;;;;10.31;100.00;102221.69;5012900;28;20038;-51
2023/06/04 04:17:53;;;;;;;2.92;1.30;;;;;;;10.42;100.00;102232.13;4994890;28;20038;-51
2023/06/04 04:20:18;;;;;;;2.97;1.90;;;;;;;10.51;100.00;102232.00;5012333;28;20492;-48
2023/06/04 04:22:43;;;;;;;2.63;1.50;;;;;;;10.58;100.00;102238.97;5012859;28;20030;-49
2023/06/04 04:25:09;;;;;;;1.88;1.38;;;;;;;10.61;100.00;102228.41;5012734;28;20037;-50
2023/06/04 04:27:38;;;;;;;6.22;1.27;;;;;;;10.66;100.00;102229.22;5011146;28;20079;-48
2023/06/04 04:30:05;;;;;;;2.97;1.33;;;;;;;10.50;100.00;102186.41;5011648;28;20091;-48
2023/06/04 04:32:31;;;;;;;3.17;1.33;;;;;;;10.70;100.00;102226.56;5011141;28;20489;-48
2023/06/04 04:34:57;;;;;;;1.98;1.38;;;;;;;10.37;100.00;102161.09;5012898;28;20061;-49
2023/06/04 04:37:22;;;;;;;2.22;1.30;;;;;;;10.81;100.00;102231.69;5012507;28;20062;-51
2023/06/04 04:39:51;;;;;;;2.83;1.20;;;;;;;10.87;100.00;102236.00;5012310;28;20141;-49
2023/06/04 04:42:17;;;;;;;2.50;1.73;;;;;;;10.92;100.00;102227.16;5012936;28;20105;-48
2023/06/04 04:44:47;;;;;;;2.05;1.50;;;;;;;10.99;100.00;102231.47;5011230;28;20160;-47
2023/06/04 04:47:12;;;;;;;1.52;1.33;;;;;;;11.00;100.00;102220.06;5012383;28;20045;-47
2023/06/04 04:49:38;;;;;;;3.63;1.50;;;;;;;10.65;100.00;102157.25;5012681;28;20026;-49
2023/06/04 04:52:03;;;;;;;2.17;1.50;;;;;;;11.06;100.00;102221.75;5012479;28;20038;-49
2023/06/04 04:54:28;;;;;;;2.35;1.38;;;;;;;11.15;100.00;102230.38;5012803;28;20030;-48
2023/06/04 04:56:54;;;;;;;2.30;1.65;;;;;;;11.21;100.00;102226.78;5012213;28;20044;-50
2023/06/04 04:59:19;;;;;;;2.13;1.77;;;;;;;10.90;100.00;102163.09;5012117;28;20041;-52
2023/06/04 05:01:44;;;;;;;3.42;1.40;;;;;;;11.29;100.00;102219.69;5011767;28;20044;-49
2023/06/04 05:04:10;;;;;;;2.08;1.40;;;;;;;11.40;100.00;102227.44;5012061;28;20179;-50
2023/06/04 05:06:35;;;;;;;1.30;1.20;;;;;;;11.06;100.00;102158.50;5011773;28;20430;-49
2023/06/04 05:09:01;;;;;;;3.95;1.50;;;;;;;11.12;100.00;102155.78;5017231;28;20447;-51
2023/06/04 05:11:27;;;;;;;3.50;1.38;;;;;;;11.63;100.00;102230.63;5032406;28;20397;-51
2023/06/04 05:13:52;;;;;;;2.38;1.58;;;;;;;11.56;100.00;102207.84;5030604;28;20030;-51
2023/06/04 05:16:20;;;;;;;2.28;1.50;;;;;;;11.71;100.00;102221.72;5032113;28;20037;-54
2023/06/04 05:18:45;;;;;;;2.38;1.55;;;;;;;11.80;100.00;102233.91;5030737;28;20033;-51
2023/06/04 05:21:12;;;;;;;2.30;1.73;;;;;;;11.95;100.00;102240.72;5030675;28;20099;-48
2023/06/04 05:23:38;;;;;;;2.95;1.60;;;;;;;11.99;100.00;102221.31;5016973;28;20029;-50
2023/06/04 05:26:04;;;;;;;5.30;1.65;;;;;;;12.18;100.00;102231.53;5035911;28;20126;-47
2023/06/04 05:28:34;;;;;;;3.80;1.77;;;;;;;11.88;100.00;102149.38;5018329;28;20073;-49
2023/06/04 05:30:59;;;;;;;3.28;1.52;;;;;;;12.32;100.00;102197.81;5035517;28;20640;-49
2023/06/04 05:33:25;;;;;;;2.63;1.42;;;;;;;12.61;100.00;102220.22;5018056;28;20032;-51
2023/06/04 05:35:51;;;;;;;3.42;1.58;;;;;;;12.41;100.00;102171.25;5034458;28;20045;-52
2023/06/04 05:38:20;;;;;;;2.47;1.80;;;;;;;12.74;100.00;102203.22;5035901;28;20036;-52
2023/06/04 05:40:46;;;;;;;2.85;1.63;;;;;;;12.65;100.00;102175.19;5035673;28;20057;-53
2023/06/04 05:43:11;;;;;;;2.45;1.35;;;;;;;12.69;100.00;102150.47;5018023;28;20041;-49
2023/06/04 05:45:37;;;;;;;3.40;1.70;;;;;;;12.97;100.00;102188.63;5017638;28;20033;-47
2023/06/04 05:48:03;;;;;;;3.28;2.13;;;;;;;13.35;100.00;102235.44;5035593;28;20033;-47
2023/06/04 05:50:28;;;;;;;2.30;1.45;;;;;;;13.57;100.00;102261.44;5033675;28;20037;-48
2023/06/04 05:52:53;;;;;;;1.65;1.40;;;;;;;13.65;100.00;102249.75;5035157;28;20044;-45
2023/06/04 05:55:19;;;;;;;2.13;1.50;;;;;;;13.82;100.00;102271.41;5035617;28;20033;-47
2023/06/04 05:57:44;;;;;;;1.90;1.23;;;;;;;13.64;100.00;102218.03;5035351;28;20064;-49
2023/06/04 06:00:10;;;;;;;4.30;1.50;;;;;;;14.09;100.00;102273.44;5017568;28;20044;-48
2023/06/04 06:02:37;;;;;;;3.22;1.10;;;;;;;14.23;100.00;102281.03;5035369;28;20037;-50
2023/06/04 06:05:03;;;;;;;2.05;1.10;;;;;;;14.29;100.00;102266.75;5034111;28;20029;-52
2023/06/04 06:07:28;;;;;;;3.50;1.13;;;;;;;14.41;100.00;102285.91;5033593;28;20571;-49
2023/06/04 06:09:53;;;;;;;2.72;1.35;;;;;;;14.54;100.00;102292.59;5034560;28;20057;-47
2023/06/04 06:12:19;;;;;;;3.15;1.10;;;;;;;13.97;100.00;102165.19;5035152;28;20167;-51
2023/06/04 06:14:44;;;;;;;1.63;0.90;;;;;;;14.83;100.00;102280.34;5035150;28;20068;-48
2023/06/04 06:17:10;;;;;;;2.67;1.58;;;;;;;14.87;100.00;102274.94;5034622;28;20057;-51
2023/06/04 06:19:36;;;;;;;6.40;1.38;;;;;;;14.99;100.00;102277.25;5016839;28;20206;-50
2023/06/04 06:22:02;;;;;;;2.70;1.15;;;;;;;14.83;100.00;102230.88;5034973;28;20029;-49
2023/06/04 06:24:28;;;;;;;1.10;0.95;;;;;;;15.26;100.00;102285.34;5033601;28;20057;-49
2023/06/04 06:26:53;;;;;;;1.30;1.02;;;;;;;14.99;100.00;102232.19;5034551;28;20397;-47
2023/06/04 06:29:18;;;;;;;3.70;1.08;;;;;;;15.46;100.00;102297.13;5035006;28;20112;-47
2023/06/04 06:31:44;;;;;;;3.15;1.33;;;;;;;15.33;100.00;102263.03;5034761;28;20113;-51
2023/06/04 06:34:09;;;;;;;4.78;1.02;;;;;;;15.56;100.00;102306.56;5033805;28;20029;-51
2023/06/04 06:36:35;;;;;;;2.95;1.20;;;;;;;15.61;100.00;102298.50;5034887;28;20481;-48
2023/06/04 06:39:00;;;;;;;2.05;0.98;;;;;;;15.31;100.00;102223.28;5015765;28;20033;-50
2023/06/04 06:41:26;;;;;;;1.88;1.02;;;;;;;15.85;100.00;102307.50;5017089;28;20049;-48
2023/06/04 06:43:51;;;;;;;1.38;0.90;;;;;;;15.99;100.00;102295.53;5033715;28;20026;-49
2023/06/04 06:46:16;;;;;;;3.58;0.75;;;;;;;15.82;100.00;102230.59;5034486;28;20048;-48
2023/06/04 06:48:45;;;;;;;1.15;0.70;;;;;;;16.01;100.00;102251.19;5016702;28;20029;-49
2023/06/04 06:51:10;;;;;;;2.25;0.82;;;;;;;16.03;100.00;102254.66;5034677;28;20075;-53
2023/06/04 06:53:35;;;;;;;3.03;1.02;;;;;;;16.46;100.00;102311.69;5014977;28;20447;-49
2023/06/04 06:56:01;;;;;;;1.70;1.27;;;;;;;16.61;100.00;102312.06;5034536;28;20088;-48
2023/06/04 06:58:26;;;;;;;2.38;0.95;;;;;;;16.25;100.00;102249.50;5033831;28;20049;-49
2023/06/04 07:00:51;;;;;;;2.67;1.00;;;;;;;16.81;100.00;102314.91;5033620;28;20041;-48
2023/06/04 07:03:17;;;;;;;4.45;1.08;;;;;;;16.30;100.00;102205.91;5016001;28;20042;-47
2023/06/04 07:05:42;;;;;;;3.65;1.13;;;;;;;16.90;100.00;102295.09;5028445;28;20087;-48
2023/06/04 07:08:07;;;;;;;1.67;1.08;;;;;;;17.07;100.00;102306.03;5031549;28;20140;-46
2023/06/04 07:10:33;;;;;;;3.53;1.50;;;;;;;17.18;100.00;102324.25;5014195;28;20069;-51
2023/06/04 07:12:58;;;;;;;2.47;1.10;;;;;;;16.86;100.00;102261.56;5012869;28;20044;-49
2023/06/04 07:15:23;;;;;;;1.50;0.95;;;;;;;16.87;100.00;102252.66;5011874;28;20517;-47
2023/06/04 07:17:49;;;;;;;1.70;0.95;;;;;;;16.90;100.00;102249.03;5013819;28;20469;-49
2023/06/04 07:20:14;;;;;;;4.30;1.30;;;;;;;17.43;100.00;102317.09;4998446;28;20460;-48
2023/06/04 07:22:39;;;;;;;3.75;1.30;;;;;;;17.33;100.00;102315.72;5011489;28;20040;-50
2023/06/04 07:25:05;;;;;;;2.67;1.17;;;;;;;17.28;100.00;102310.53;5011817;28;20552;-52
2023/06/04 07:27:31;;;;;;;2.38;1.15;;;;;;;16.98;100.00;102245.16;5013816;28;20041;-51
2023/06/04 07:29:56;;;;;;;3.40;1.25;;;;;;;17.67;100.00;102310.00;5013817;28;20081;-50
2023/06/04 07:32:21;;;;;;;4.65;1.10;;;;;;;17.50;100.00;102254.72;5013680;28;20080;-49
2023/06/04 07:34:47;;;;;;;1.27;1.02;;;;;;;17.83;100.00;102269.38;5012977;28;20046;-50
2023/06/04 07:37:13;;;;;;;3.67;1.20;;;;;;;18.45;100.00;102298.78;5010592;28;20096;-48
2023/06/04 07:39:39;;;;;;;2.03;1.20;;;;;;;18.43;100.00;102268.69;5002888;28;20609;-47
2023/06/04 07:42:07;;;;;;;6.57;1.20;;;;;;;19.05;100.00;102319.34;5011471;28;20034;-48
2023/06/04 07:44:32;;;;;;;2.05;1.15;;;;;;;19.37;100.00;102312.56;5013521;28;20036;-49
2023/06/04 07:46:57;;;;;;;3.42;1.00;;;;;;;19.48;100.00;102318.28;4994894;28;20034;-51
2023/06/04 07:49:23;;;;;;;4.45;1.10;;;;;;;19.58;100.00;102308.91;5012549;28;20109;-47
2023/06/04 07:51:48;;;;;;;4.07;1.35;;;;;;;19.45;100.00;102264.16;5007282;28;20042;-50
2023/06/04 07:54:14;;;;;;;2.95;1.13;;;;;;;19.89;100.00;102304.78;5013637;28;20029;-55
2023/06/04 07:56:40;;;;;;;3.25;1.30;;;;;;;19.98;100.00;102278.50;4979635;28;20080;-51
2023/06/04 07:59:05;;;;;;;1.75;1.20;;;;;;;20.28;100.00;102297.56;5004956;28;20041;-54
2023/06/04 08:01:30;;;;;;;2.40;1.50;;;;;;;20.28;100.00;102320.75;4995069;28;20489;-54
2023/06/04 08:03:56;;;;;;;1.40;0.95;;;;;;;20.19;100.00;102263.22;5011973;28;20598;-54
2023/06/04 08:06:24;;;;;;;1.98;0.90;;;;;;;20.66;100.00;102336.63;5003221;28;20034;-53
2023/06/04 08:08:50;;;;;;;3.15;1.10;;;;;;;21.22;100.00;102328.31;5015737;28;20127;-54
2023/06/04 08:11:15;;;;;;;1.75;1.10;;;;;;;20.95;100.00;102326.22;5032268;28;20069;-53
2023/06/04 08:13:41;;;;;;;2.80;1.23;;;;;;;21.50;100.00;102263.41;5027352;28;20037;-53
2023/06/04 08:16:07;;;;;;;2.95;1.30;;;;;;;21.73;100.00;102279.06;5013975;28;20163;-55
2023/06/04 08:18:32;;;;;;;5.47;1.42;;;;;;;21.99;100.00;102331.25;5019230;28;20029;-52
2023/06/04 08:20:58;;;;;;;2.25;1.15;;;;;;;22.20;100.00;102319.31;5032000;28;20044;-54
2023/06/04 08:23:23;;;;;;;2.10;1.35;;;;;;;21.68;100.00;102334.75;5032144;28;20037;-54
2023/06/04 08:25:48;;;;;;;3.50;1.42;;;;;;;21.20;100.00;102270.44;5028631;28;20507;-53
2023/06/04 08:28:15;;;;;;;3.13;1.15;;;;;;;21.29;100.00;102321.69;5027939;28;20038;-55
2023/06/04 08:30:41;;;;;;;2.35;0.90;;;;;;;21.17;100.00;102262.56;5032646;28;20476;-51
2023/06/04 08:33:06;;;;;;;2.35;1.35;;;;;;;20.77;100.00;102262.00;5027952;28;20041;-54
2023/06/04 08:35:32;;;;;;;1.88;1.20;;;;;;;21.50;100.00;102321.50;5031941;28;20112;-53
2023/06/04 08:37:58;;;;;;;7.82;1.02;;;;;;;22.19;100.00;102320.25;5031132;28;20044;-52
2023/06/04 08:40:24;;;;;;;1.20;0.90;;;;;;;22.13;100.00;102317.03;5031323;28;20045;-53
2023/06/04 08:42:50;;;;;;;4.95;1.10;;;;;;;22.42;100.00;102333.19;5029748;28;20034;-53
2023/06/04 08:45:16;;;;;;;1.58;1.13;;;;;;;21.82;100.00;102275.00;5047482;28;20469;-54
2023/06/04 08:47:44;;;;;;;1.77;1.38;;;;;;;22.12;100.00;102275.09;5031619;28;20038;-52
2023/06/04 08:50:10;;;;;;;2.92;1.08;;;;;;;22.57;100.00;102341.28;5032041;28;20029;-50
2023/06/04 08:52:37;;;;;;;3.17;1.52;;;;;;;22.62;100.00;102329.31;5030215;28;20040;-54
2023/06/04 08:55:03;;;;;;;3.17;1.23;;;;;;;23.13;100.00;102335.25;5030981;28;20029;-54
2023/06/04 08:57:30;;;;;;;2.65;1.13;;;;;;;22.70;100.00;102336.97;5029816;28;20401;-55
2023/06/04 08:59:56;;;;;;;2.00;1.23;;;;;;;22.83;100.00;102322.72;5029052;28;20033;-55
2023/06/04 09:02:21;;;;;;;1.50;0.93;;;;;;;23.34;100.00;102342.84;5030376;28;20488;-53
2023/06/04 09:04:47;;;;;;;3.70;1.45;;;;;;;23.22;100.00;102284.50;5032212;28;20519;-55
2023/06/04 09:07:13;;;;;;;2.35;1.38;;;;;;;23.17;100.00;102293.81;4997683;28;20538;-55
2023/06/04 09:09:40;;;;;;;3.20;0.95;;;;;;;23.24;100.00;102308.56;5041123;28;20054;-54
2023/06/04 09:12:09;;;;;;;3.30;1.27;;;;;;;23.32;100.00;102331.31;5012400;28;20034;-53
2023/06/04 09:14:35;;;;;;;3.75;1.83;;;;;;;23.82;100.00;102346.09;4994448;28;20133;-55
2023/06/04 09:17:00;;;;;;;2.30;1.17;;;;;;;23.83;98.58;102361.28;5011113;28;20403;-55
2023/06/04 09:19:25;;;;;;;2.38;1.02;;;;;;;23.70;99.36;102293.97;5012044;28;20478;-55
2023/06/04 09:21:56;;;;;;;5.85;1.60;;;;;;;23.64;100.00;102278.28;5011698;28;20033;-54
2023/06/04 09:24:22;;;;;;;2.70;1.08;;;;;;;23.40;100.00;102285.22;5011414;28;20513;-56
2023/06/04 09:26:49;;;;;;;2.85;1.27;;;;;;;23.95;100.00;102323.72;5011359;28;20030;-56
2023/06/04 09:29:15;;;;;;;5.55;1.50;;;;;;;23.93;100.00;102344.44;4991563;28;20040;-56
2023/06/04 09:31:40;;;;;;;2.58;1.40;;;;;;;24.12;98.46;102348.69;5007701;28;20053;-52
2023/06/04 09:34:06;;;;;;;5.95;1.33;;;;;;;24.41;100.00;102359.25;5010834;28;20469;-56
2023/06/04 09:36:35;;;;;;;4.97;1.30;;;;;;;23.68;96.24;102311.19;5007923;28;20137;-53
2023/06/04 09:39:23;;;;;;;1.70;1.20;;;;;;;23.53;95.30;102304.94;5008202;28;20069;-55
2023/06/04 09:42:01;;;;;;;3.10;1.00;;;;;;;23.08;98.48;102343.59;5010944;28;20054;-56
2023/06/04 09:44:27;;;;;;;3.58;1.05;;;;;;;23.53;98.70;102362.25;5011170;28;20033;-53
2023/06/04 09:46:56;;;;;;;3.88;1.35;;;;;;;23.45;97.82;102332.31;5025438;28;20030;-54
2023/06/04 09:49:22;;;;;;;3.90;1.45;;;;;;;24.23;100.00;102360.47;5010787;28;20045;-55
2023/06/04 09:51:51;;;;;;;4.25;1.15;;;;;;;23.99;98.11;102344.06;5009794;28;20030;-53
2023/06/04 09:54:16;;;;;;;1.63;1.02;;;;;;;23.52;95.94;102287.13;4977079;28;20030;-54
2023/06/04 09:56:42;;;;;;;2.83;1.50;;;;;;;23.79;96.35;102349.03;4994615;28;20113;-54
2023/06/04 09:59:09;;;;;;;4.65;1.20;;;;;;;24.26;95.88;102356.69;5011301;28;20036;-54
2023/06/04 10:01:41;;;;;;;2.25;1.10;;;;;;;23.89;100.00;102285.59;4993682;28;20049;-55
2023/06/04 10:04:07;;;;;;;3.38;1.50;;;;;;;24.36;100.00;102295.94;4975134;28;20034;-51
2023/06/04 10:06:34;;;;;;;1.95;1.08;;;;;;;24.58;95.06;102348.22;4973612;28;20038;-55
2023/06/04 10:09:07;;;;;;;2.17;1.40;;;;;;;24.80;94.35;102361.13;4992531;28;20042;-52
2023/06/04 10:11:47;;;;;;;3.10;1.25;;;;;;;24.73;89.80;102364.31;5011879;28;20041;-54
2023/06/04 10:14:27;;;;;;;3.47;1.15;;;;;;;25.28;95.64;102345.25;5034563;28;20033;-52
2023/06/04 10:16:53;;;;;;;3.13;1.38;;;;;;;25.36;91.09;102350.97;5032933;28;20036;-53
2023/06/04 10:19:19;;;;;;;3.17;0.90;;;;;;;24.64;91.26;102306.56;5049496;28;20110;-53
2023/06/04 10:21:45;;;;;;;5.50;1.20;;;;;;;24.47;90.95;102283.47;5032784;28;20120;-54
2023/06/04 10:24:12;;;;;;;1.67;1.13;;;;;;;24.94;89.36;102292.84;5031754;28;20038;-50
2023/06/04 10:26:37;;;;;;;1.45;1.13;;;;;;;25.34;95.34;102296.28;5039823;28;20052;-53
2023/06/04 10:29:03;;;;;;;3.03;1.65;;;;;;;26.07;95.00;102348.47;5013841;28;20030;-52
2023/06/04 10:31:29;;;;;;;3.17;1.50;;;;;;;25.90;91.54;102335.34;5049540;28;20061;-52
2023/06/04 10:33:56;;;;;;;4.28;1.63;;;;;;;25.74;84.94;102289.78;5049490;28;20425;-50
2023/06/04 10:36:22;;;;;;;4.28;1.42;;;;;;;26.65;100.00;102345.00;5034034;28;20435;-53
2023/06/04 10:38:48;;;;;;;2.60;1.40;;;;;;;25.85;91.62;102342.94;5033388;28;20087;-51
2023/06/04 10:41:18;;;;;;;5.53;1.67;;;;;;;25.65;93.37;102298.53;5034545;28;20041;-51
2023/06/04 10:43:45;;;;;;;1.73;1.27;;;;;;;25.48;89.35;102290.81;5032278;28;20030;-51
2023/06/04 10:46:14;;;;;;;4.60;1.40;;;;;;;26.13;97.30;102339.91;5033653;28;20029;-53
2023/06/04 10:48:53;;;;;;;3.83;1.45;;;;;;;24.80;93.99;102349.47;5050074;28;20025;-55
2023/06/04 10:51:34;;;;;;;3.33;1.35;;;;;;;24.93;90.47;102283.91;5016653;28;20034;-53
2023/06/04 10:54:01;;;;;;;2.63;1.23;;;;;;;26.22;89.84;102309.59;5033644;28;20033;-54
2023/06/04 10:56:32;;;;;;;3.08;2.08;;;;;;;25.50;93.02;102294.25;5031779;28;20033;-52
2023/06/04 10:58:57;;;;;;;5.00;1.42;;;;;;;25.91;99.12;102346.06;5034071;28;20076;-53
2023/06/04 11:01:28;;;;;;;3.60;1.30;;;;;;;25.82;94.52;102348.56;5015342;28;20053;-55
2023/06/04 11:03:54;;;;;;;4.10;1.30;;;;;;;26.34;88.92;102343.75;5016837;28;20037;-54
2023/06/04 11:06:21;;;;;;;2.50;1.25;;;;;;;25.78;92.21;102295.78;5033858;28;20064;-54
2023/06/04 11:08:46;;;;;;;3.05;1.50;;;;;;;25.76;89.01;102281.56;5015651;28;20033;-54
2023/06/04 11:11:13;;;;;;;1.90;1.23;;;;;;;25.91;87.21;102337.97;5026728;28;20088;-55
2023/06/04 11:13:40;;;;;;;3.72;1.58;;;;;;;25.93;96.91;102340.53;5029486;28;20516;-53
2023/06/04 11:16:18;;;;;;;2.78;1.35;;;;;;;26.31;90.93;102341.28;5028464;28;20116;-54